sensor_id;sensor_type;location;lat;lon;timestamp;P1;durP1;ratioP1;P2;durP2;ratioP2
53293;SDS011;39181;53.440;5.644;2023-04-01T00:00:54;10.38;;;4.20;;
53293;SDS011;39181;53.440;5.644;2023-04-01T00:03:21;12.80;;;3.60;;
53293;SDS011;39181;53.440;5.644;2023-04-01T00:05:48;8.73;;;3.03;;
53293;SDS011;39181;53.440;5.644;2023-04-01T00:08:14;8.55;;;2.65;;
53293;SDS011;39181;53.440;5.644;2023-04-01T00:10:39;8.18;;;2.78;;
53293;SDS011;39181;53.440;5.644;2023-04-01T00:13:05;13.80;;;3.05;;
53293;SDS011;39181;53.440;5.644;2023-04-01T00:15:32;9.75;;;3.25;;
53293;SDS011;39181;53.440;5.644;2023-04-01T00:17:57;7.20;;;3.28;;
53293;SDS011;39181;53.440;5.644;2023-04-01T00:20:23;9.90;;;3.00;;
53293;SDS011;39181;53.440;5.644;2023-04-01T00:22:49;8.07;;;2.65;;
53293;SDS011;39181;53.440;5.644;2023-04-01T00:25:15;8.75;;;2.83;;
53293;SDS011;39181;53.440;5.644;2023-04-01T00:27:41;12.05;;;2.92;;
53293;SDS011;39181;53.440;5.644;2023-04-01T00:30:07;8.32;;;3.35;;
53293;SDS011;39181;53.440;5.644;2023-04-01T00:32:34;13.93;;;3.78;;
53293;SDS011;39181;53.440;5.644;2023-04-01T00:35:00;8.25;;;3.47;;
53293;SDS011;39181;53.440;5.644;2023-04-01T00:37:26;7.30;;;3.83;;
53293;SDS011;39181;53.440;5.644;2023-04-01T00:39:52;8.50;;;3.60;;
53293;SDS011;39181;53.440;5.644;2023-04-01T00:42:18;12.40;;;4.50;;
53293;SDS011;39181;53.440;5.644;2023-04-01T00:44:45;10.35;;;4.88;;
53293;SDS011;39181;53.440;5.644;2023-04-01T00:47:15;11.95;;;5.18;;
53293;SDS011;39181;53.440;5.644;2023-04-01T00:49:42;15.23;;;5.75;;
53293;SDS011;39181;53.440;5.644;2023-04-01T00:52:11;20.17;;;6.22;;
53293;SDS011;39181;53.440;5.644;2023-04-01T00:54:41;12.73;;;6.22;;
53293;SDS011;39181;53.440;5.644;2023-04-01T00:57:10;21.52;;;6.90;;
53293;SDS011;39181;53.440;5.644;2023-04-01T00:59:44;20.33;;;7.22;;
53293;SDS011;39181;53.440;5.644;2023-04-01T01:02:13;17.10;;;6.88;;
53293;SDS011;39181;53.440;5.644;2023-04-01T01:04:40;21.17;;;8.18;;
53293;SDS011;39181;53.440;5.644;2023-04-01T01:15:37;22.88;;;8.45;;
53293;SDS011;39181;53.440;5.644;2023-04-01T01:18:27;20.23;;;8.25;;
53293;SDS011;39181;53.440;5.644;2023-04-01T01:23:46;17.73;;;7.75;;
53293;SDS011;39181;53.440;5.644;2023-04-01T01:35:16;19.45;;;7.75;;
53293;SDS011;39181;53.440;5.644;2023-04-01T01:37:49;23.70;;;8.82;;
53293;SDS011;39181;53.440;5.644;2023-04-01T01:40:18;18.70;;;9.15;;
53293;SDS011;39181;53.440;5.644;2023-04-01T01:42:50;28.60;;;9.90;;
53293;SDS011;39181;53.440;5.644;2023-04-01T01:45:20;23.45;;;9.10;;
53293;SDS011;39181;53.440;5.644;2023-04-01T01:47:48;20.90;;;9.32;;
53293;SDS011;39181;53.440;5.644;2023-04-01T01:50:16;26.40;;;9.90;;
53293;SDS011;39181;53.440;5.644;2023-04-01T01:52:42;21.38;;;10.30;;
53293;SDS011;39181;53.440;5.644;2023-04-01T01:55:26;29.05;;;9.20;;
53293;SDS011;39181;53.440;5.644;2023-04-01T01:57:55;20.35;;;8.68;;
53293;SDS011;39181;53.440;5.644;2023-04-01T02:00:23;21.45;;;9.52;;
53293;SDS011;39181;53.440;5.644;2023-04-01T02:02:50;17.00;;;8.98;;
53293;SDS011;39181;53.440;5.644;2023-04-01T02:05:17;11.38;;;7.70;;
53293;SDS011;39181;53.440;5.644;2023-04-01T02:07:51;22.58;;;7.90;;
53293;SDS011;39181;53.440;5.644;2023-04-01T02:10:25;14.30;;;8.32;;
53293;SDS011;39181;53.440;5.644;2023-04-01T02:12:52;23.95;;;9.60;;
53293;SDS011;39181;53.440;5.644;2023-04-01T02:15:21;16.45;;;8.80;;
53293;SDS011;39181;53.440;5.644;2023-04-01T02:17:49;27.52;;;11.00;;
53293;SDS011;39181;53.440;5.644;2023-04-01T02:20:20;25.75;;;11.20;;
53293;SDS011;39181;53.440;5.644;2023-04-01T02:22:49;21.40;;;10.57;;
53293;SDS011;39181;53.440;5.644;2023-04-01T02:25:21;25.20;;;11.73;;
53293;SDS011;39181;53.440;5.644;2023-04-01T02:27:52;30.95;;;12.20;;
53293;SDS011;39181;53.440;5.644;2023-04-01T02:30:21;44.15;;;15.82;;
53293;SDS011;39181;53.440;5.644;2023-04-01T02:32:48;47.88;;;15.00;;
53293;SDS011;39181;53.440;5.644;2023-04-01T02:35:15;49.83;;;17.00;;
53293;SDS011;39181;53.440;5.644;2023-04-01T02:37:42;38.70;;;15.27;;
53293;SDS011;39181;53.440;5.644;2023-04-01T02:40:11;45.40;;;16.05;;
53293;SDS011;39181;53.440;5.644;2023-04-01T02:42:39;26.15;;;12.88;;
53293;SDS011;39181;53.440;5.644;2023-04-01T02:45:05;44.08;;;15.70;;
53293;SDS011;39181;53.440;5.644;2023-04-01T02:47:31;28.55;;;12.60;;
53293;SDS011;39181;53.440;5.644;2023-04-01T02:49:57;32.72;;;13.98;;
53293;SDS011;39181;53.440;5.644;2023-04-01T02:52:27;39.40;;;13.38;;
53293;SDS011;39181;53.440;5.644;2023-04-01T02:54:54;26.67;;;11.00;;
53293;SDS011;39181;53.440;5.644;2023-04-01T02:57:20;29.42;;;11.52;;
53293;SDS011;39181;53.440;5.644;2023-04-01T02:59:46;27.80;;;12.65;;
53293;SDS011;39181;53.440;5.644;2023-04-01T03:02:12;31.13;;;11.93;;
53293;SDS011;39181;53.440;5.644;2023-04-01T03:04:38;31.25;;;12.88;;
53293;SDS011;39181;53.440;5.644;2023-04-01T03:07:04;21.88;;;11.50;;
53293;SDS011;39181;53.440;5.644;2023-04-01T03:09:29;32.53;;;13.30;;
53293;SDS011;39181;53.440;5.644;2023-04-01T03:11:55;30.58;;;12.25;;
53293;SDS011;39181;53.440;5.644;2023-04-01T03:14:21;39.30;;;13.65;;
53293;SDS011;39181;53.440;5.644;2023-04-01T03:16:46;32.15;;;12.98;;
53293;SDS011;39181;53.440;5.644;2023-04-01T03:19:12;30.90;;;13.02;;
53293;SDS011;39181;53.440;5.644;2023-04-01T03:21:38;29.05;;;13.20;;
53293;SDS011;39181;53.440;5.644;2023-04-01T03:24:03;23.00;;;11.77;;
53293;SDS011;39181;53.440;5.644;2023-04-01T03:26:30;29.23;;;11.98;;
53293;SDS011;39181;53.440;5.644;2023-04-01T03:28:55;25.35;;;12.02;;
53293;SDS011;39181;53.440;5.644;2023-04-01T03:31:21;24.40;;;10.68;;
53293;SDS011;39181;53.440;5.644;2023-04-01T03:33:47;24.75;;;10.20;;
53293;SDS011;39181;53.440;5.644;2023-04-01T03:36:13;15.70;;;6.95;;
53293;SDS011;39181;53.440;5.644;2023-04-01T03:38:41;19.42;;;9.25;;
53293;SDS011;39181;53.440;5.644;2023-04-01T03:41:11;21.25;;;10.05;;
53293;SDS011;39181;53.440;5.644;2023-04-01T03:43:38;21.25;;;10.25;;
53293;SDS011;39181;53.440;5.644;2023-04-01T03:46:03;28.13;;;10.25;;
53293;SDS011;39181;53.440;5.644;2023-04-01T03:48:29;23.50;;;10.30;;
53293;SDS011;39181;53.440;5.644;2023-04-01T03:50:54;24.67;;;10.65;;
53293;SDS011;39181;53.440;5.644;2023-04-01T03:53:20;26.77;;;10.93;;
53293;SDS011;39181;53.440;5.644;2023-04-01T03:55:46;25.65;;;11.55;;
53293;SDS011;39181;53.440;5.644;2023-04-01T03:58:11;28.98;;;10.05;;
53293;SDS011;39181;53.440;5.644;2023-04-01T04:00:37;25.20;;;10.90;;
53293;SDS011;39181;53.440;5.644;2023-04-01T04:03:02;28.83;;;11.35;;
53293;SDS011;39181;53.440;5.644;2023-04-01T04:05:28;29.08;;;11.80;;
53293;SDS011;39181;53.440;5.644;2023-04-01T04:07:54;24.75;;;11.50;;
53293;SDS011;39181;53.440;5.644;2023-04-01T04:10:20;22.13;;;11.50;;
53293;SDS011;39181;53.440;5.644;2023-04-01T04:12:48;24.08;;;11.65;;
53293;SDS011;39181;53.440;5.644;2023-04-01T04:15:14;33.60;;;14.02;;
53293;SDS011;39181;53.440;5.644;2023-04-01T04:17:40;32.78;;;13.48;;
53293;SDS011;39181;53.440;5.644;2023-04-01T04:20:06;27.73;;;12.68;;
53293;SDS011;39181;53.440;5.644;2023-04-01T04:22:33;28.88;;;12.15;;
53293;SDS011;39181;53.440;5.644;2023-04-01T04:24:58;31.58;;;14.00;;
53293;SDS011;39181;53.440;5.644;2023-04-01T04:27:24;37.58;;;13.27;;
53293;SDS011;39181;53.440;5.644;2023-04-01T04:29:50;34.15;;;13.70;;
53293;SDS011;39181;53.440;5.644;2023-04-01T04:32:15;43.50;;;13.98;;
53293;SDS011;39181;53.440;5.644;2023-04-01T04:34:41;33.92;;;14.38;;
53293;SDS011;39181;53.440;5.644;2023-04-01T04:37:06;31.52;;;14.15;;
53293;SDS011;39181;53.440;5.644;2023-04-01T04:39:32;34.30;;;13.95;;
53293;SDS011;39181;53.440;5.644;2023-04-01T04:41:57;29.58;;;12.73;;
53293;SDS011;39181;53.440;5.644;2023-04-01T04:44:23;39.72;;;14.20;;
53293;SDS011;39181;53.440;5.644;2023-04-01T04:46:49;28.75;;;13.07;;
53293;SDS011;39181;53.440;5.644;2023-04-01T04:49:14;35.70;;;13.57;;
53293;SDS011;39181;53.440;5.644;2023-04-01T04:51:40;33.78;;;13.60;;
53293;SDS011;39181;53.440;5.644;2023-04-01T04:54:06;27.40;;;12.70;;
53293;SDS011;39181;53.440;5.644;2023-04-01T04:56:32;34.63;;;11.27;;
53293;SDS011;39181;53.440;5.644;2023-04-01T04:58:58;23.20;;;11.07;;
53293;SDS011;39181;53.440;5.644;2023-04-01T05:01:24;36.65;;;12.20;;
53293;SDS011;39181;53.440;5.644;2023-04-01T05:03:50;38.08;;;13.07;;
53293;SDS011;39181;53.440;5.644;2023-04-01T05:06:16;29.60;;;12.30;;
53293;SDS011;39181;53.440;5.644;2023-04-01T05:08:43;31.73;;;11.07;;
53293;SDS011;39181;53.440;5.644;2023-04-01T05:11:10;22.08;;;9.73;;
53293;SDS011;39181;53.440;5.644;2023-04-01T05:13:38;25.85;;;10.38;;
53293;SDS011;39181;53.440;5.644;2023-04-01T05:16:07;29.00;;;11.93;;
53293;SDS011;39181;53.440;5.644;2023-04-01T05:18:34;39.17;;;13.45;;
53293;SDS011;39181;53.440;5.644;2023-04-01T05:21:00;27.60;;;11.43;;
53293;SDS011;39181;53.440;5.644;2023-04-01T05:23:26;23.65;;;10.50;;
53293;SDS011;39181;53.440;5.644;2023-04-01T05:25:51;41.10;;;13.35;;
53293;SDS011;39181;53.440;5.644;2023-04-01T05:28:18;23.95;;;11.20;;
53293;SDS011;39181;53.440;5.644;2023-04-01T05:30:45;29.48;;;11.30;;
53293;SDS011;39181;53.440;5.644;2023-04-01T05:33:11;28.10;;;10.77;;
53293;SDS011;39181;53.440;5.644;2023-04-01T05:35:38;26.63;;;11.90;;
53293;SDS011;39181;53.440;5.644;2023-04-01T05:38:04;29.75;;;12.88;;
53293;SDS011;39181;53.440;5.644;2023-04-01T05:40:30;36.45;;;13.25;;
53293;SDS011;39181;53.440;5.644;2023-04-01T05:42:56;37.35;;;13.63;;
53293;SDS011;39181;53.440;5.644;2023-04-01T05:45:22;32.28;;;12.52;;
53293;SDS011;39181;53.440;5.644;2023-04-01T05:47:48;39.70;;;13.63;;
53293;SDS011;39181;53.440;5.644;2023-04-01T05:50:13;37.33;;;12.48;;
53293;SDS011;39181;53.440;5.644;2023-04-01T05:52:40;33.70;;;13.32;;
53293;SDS011;39181;53.440;5.644;2023-04-01T05:55:05;54.22;;;15.43;;
53293;SDS011;39181;53.440;5.644;2023-04-01T05:57:31;27.42;;;10.68;;
53293;SDS011;39181;53.440;5.644;2023-04-01T05:59:57;32.17;;;12.18;;
53293;SDS011;39181;53.440;5.644;2023-04-01T06:02:23;33.05;;;13.18;;
53293;SDS011;39181;53.440;5.644;2023-04-01T06:04:49;30.13;;;13.18;;
53293;SDS011;39181;53.440;5.644;2023-04-01T06:07:18;47.95;;;15.57;;
53293;SDS011;39181;53.440;5.644;2023-04-01T06:09:44;41.10;;;15.30;;
53293;SDS011;39181;53.440;5.644;2023-04-01T06:12:29;43.70;;;16.25;;
53293;SDS011;39181;53.440;5.644;2023-04-01T06:18:00;38.22;;;15.70;;
53293;SDS011;39181;53.440;5.644;2023-04-01T06:23:33;32.97;;;12.52;;
53293;SDS011;39181;53.440;5.644;2023-04-01T06:36:53;36.22;;;14.02;;
53293;SDS011;39181;53.440;5.644;2023-04-01T06:39:42;52.08;;;16.08;;
53293;SDS011;39181;53.440;5.644;2023-04-01T06:45:38;28.23;;;10.23;;
53293;SDS011;39181;53.440;5.644;2023-04-01T06:51:17;29.05;;;9.77;;
53293;SDS011;39181;53.440;5.644;2023-04-01T06:53:56;36.17;;;9.68;;
53293;SDS011;39181;53.440;5.644;2023-04-01T06:56:36;32.58;;;9.40;;
53293;SDS011;39181;53.440;5.644;2023-04-01T06:59:06;29.13;;;8.43;;
53293;SDS011;39181;53.440;5.644;2023-04-01T07:01:42;39.65;;;9.07;;
53293;SDS011;39181;53.440;5.644;2023-04-01T07:04:16;22.30;;;7.88;;
53293;SDS011;39181;53.440;5.644;2023-04-01T07:06:50;21.58;;;7.93;;
53293;SDS011;39181;53.440;5.644;2023-04-01T07:09:31;35.83;;;9.55;;
53293;SDS011;39181;53.440;5.644;2023-04-01T07:12:09;26.58;;;7.75;;
53293;SDS011;39181;53.440;5.644;2023-04-01T07:14:43;31.17;;;7.63;;
53293;SDS011;39181;53.440;5.644;2023-04-01T07:17:17;35.47;;;7.97;;
53293;SDS011;39181;53.440;5.644;2023-04-01T07:20:03;33.67;;;7.90;;
53293;SDS011;39181;53.440;5.644;2023-04-01T07:22:44;25.83;;;6.90;;
53293;SDS011;39181;53.440;5.644;2023-04-01T07:25:17;25.20;;;7.28;;
53293;SDS011;39181;53.440;5.644;2023-04-01T07:28:05;22.45;;;6.22;;
53293;SDS011;39181;53.440;5.644;2023-04-01T07:30:52;29.52;;;5.97;;
53293;SDS011;39181;53.440;5.644;2023-04-01T07:33:44;26.98;;;6.07;;
53293;SDS011;39181;53.440;5.644;2023-04-01T07:36:23;19.27;;;4.25;;
53293;SDS011;39181;53.440;5.644;2023-04-01T07:39:20;30.42;;;4.70;;
53293;SDS011;39181;53.440;5.644;2023-04-01T07:44:54;23.08;;;3.97;;
53293;SDS011;39181;53.440;5.644;2023-04-01T07:50:27;17.45;;;3.92;;
53293;SDS011;39181;53.440;5.644;2023-04-01T07:57:59;10.70;;;2.20;;
53293;SDS011;39181;53.440;5.644;2023-04-01T08:00:49;11.70;;;2.42;;
53293;SDS011;39181;53.440;5.644;2023-04-01T08:06:36;12.05;;;3.25;;
53293;SDS011;39181;53.440;5.644;2023-04-01T08:09:22;11.90;;;2.58;;
53293;SDS011;39181;53.440;5.644;2023-04-01T08:12:04;18.17;;;2.45;;
53293;SDS011;39181;53.440;5.644;2023-04-01T08:17:38;22.45;;;3.55;;
53293;SDS011;39181;53.440;5.644;2023-04-01T08:25:54;17.80;;;2.38;;
53293;SDS011;39181;53.440;5.644;2023-04-01T08:29:02;16.55;;;3.05;;
53293;SDS011;39181;53.440;5.644;2023-04-01T08:31:37;13.73;;;2.53;;
53293;SDS011;39181;53.440;5.644;2023-04-01T08:34:14;15.93;;;2.85;;
53293;SDS011;39181;53.440;5.644;2023-04-01T08:39:13;19.38;;;2.50;;
53293;SDS011;39181;53.440;5.644;2023-04-01T08:41:49;16.85;;;2.92;;
53293;SDS011;39181;53.440;5.644;2023-04-01T08:44:24;22.60;;;2.65;;
53293;SDS011;39181;53.440;5.644;2023-04-01T08:50:07;17.38;;;2.45;;
53293;SDS011;39181;53.440;5.644;2023-04-01T09:01:36;14.52;;;3.38;;
53293;SDS011;39181;53.440;5.644;2023-04-01T09:07:40;17.63;;;2.55;;
53293;SDS011;39181;53.440;5.644;2023-04-01T09:19:07;14.05;;;1.40;;
53293;SDS011;39181;53.440;5.644;2023-04-01T09:21:46;9.68;;;2.20;;
53293;SDS011;39181;53.440;5.644;2023-04-01T09:36:03;9.40;;;1.58;;
53293;SDS011;39181;53.440;5.644;2023-04-01T09:44:33;10.88;;;1.55;;
53293;SDS011;39181;53.440;5.644;2023-04-01T09:50:21;8.68;;;1.70;;
53293;SDS011;39181;53.440;5.644;2023-04-01T09:53:01;14.10;;;2.08;;
53293;SDS011;39181;53.440;5.644;2023-04-01T10:15:57;12.30;;;1.50;;
53293;SDS011;39181;53.440;5.644;2023-04-01T10:21:57;23.92;;;2.85;;
53293;SDS011;39181;53.440;5.644;2023-04-01T10:32:18;12.05;;;1.77;;
53293;SDS011;39181;53.440;5.644;2023-04-01T10:35:10;14.52;;;1.27;;
53293;SDS011;39181;53.440;5.644;2023-04-01T10:38:08;8.80;;;1.52;;
53293;SDS011;39181;53.440;5.644;2023-04-01T10:58:25;8.82;;;1.70;;
53293;SDS011;39181;53.440;5.644;2023-04-01T11:01:33;17.35;;;2.40;;
53293;SDS011;39181;53.440;5.644;2023-04-01T11:04:18;13.63;;;2.10;;
53293;SDS011;39181;53.440;5.644;2023-04-01T11:13:06;15.02;;;2.67;;
53293;SDS011;39181;53.440;5.644;2023-04-01T11:27:38;17.80;;;2.47;;
53293;SDS011;39181;53.440;5.644;2023-04-01T11:30:22;14.50;;;2.30;;
53293;SDS011;39181;53.440;5.644;2023-04-01T11:33:11;10.32;;;2.10;;
53293;SDS011;39181;53.440;5.644;2023-04-01T11:38:44;13.63;;;2.30;;
53293;SDS011;39181;53.440;5.644;2023-04-01T11:44:09;20.27;;;2.55;;
53293;SDS011;39181;53.440;5.644;2023-04-01T11:52:38;14.77;;;2.10;;
53293;SDS011;39181;53.440;5.644;2023-04-01T11:58:12;7.80;;;1.27;;
53293;SDS011;39181;53.440;5.644;2023-04-01T12:07:08;3.53;;;1.15;;
53293;SDS011;39181;53.440;5.644;2023-04-01T12:12:35;8.75;;;1.58;;
53293;SDS011;39181;53.440;5.644;2023-04-01T12:26:58;8.85;;;1.83;;
53293;SDS011;39181;53.440;5.644;2023-04-01T12:32:54;14.98;;;2.97;;
53293;SDS011;39181;53.440;5.644;2023-04-01T12:35:26;13.30;;;1.80;;
53293;SDS011;39181;53.440;5.644;2023-04-01T12:44:12;16.30;;;1.92;;
53293;SDS011;39181;53.440;5.644;2023-04-01T12:47:00;10.93;;;1.60;;
53293;SDS011;39181;53.440;5.644;2023-04-01T12:52:37;8.95;;;1.17;;
53293;SDS011;39181;53.440;5.644;2023-04-01T12:55:33;19.73;;;2.60;;
53293;SDS011;39181;53.440;5.644;2023-04-01T12:58:06;9.40;;;1.27;;
53293;SDS011;39181;53.440;5.644;2023-04-01T13:06:30;20.02;;;2.35;;
53293;SDS011;39181;53.440;5.644;2023-04-01T13:12:19;13.95;;;2.67;;
53293;SDS011;39181;53.440;5.644;2023-04-01T13:21:08;16.98;;;2.05;;
53293;SDS011;39181;53.440;5.644;2023-04-01T13:26:30;7.72;;;1.95;;
53293;SDS011;39181;53.440;5.644;2023-04-01T13:31:48;10.45;;;2.15;;
53293;SDS011;39181;53.440;5.644;2023-04-01T13:34:39;10.80;;;2.30;;
53293;SDS011;39181;53.440;5.644;2023-04-01T13:39:54;11.65;;;1.77;;
53293;SDS011;39181;53.440;5.644;2023-04-01T13:45:21;11.13;;;2.08;;
53293;SDS011;39181;53.440;5.644;2023-04-01T13:56:48;14.70;;;3.38;;
53293;SDS011;39181;53.440;5.644;2023-04-01T13:59:46;16.70;;;2.72;;
53293;SDS011;39181;53.440;5.644;2023-04-01T14:02:45;10.70;;;2.20;;
53293;SDS011;39181;53.440;5.644;2023-04-01T14:11:07;16.27;;;4.22;;
53293;SDS011;39181;53.440;5.644;2023-04-01T14:13:46;16.65;;;4.05;;
53293;SDS011;39181;53.440;5.644;2023-04-01T14:16:40;20.55;;;4.60;;
53293;SDS011;39181;53.440;5.644;2023-04-01T14:19:38;17.05;;;5.00;;
53293;SDS011;39181;53.440;5.644;2023-04-01T14:44:10;22.52;;;5.32;;
53293;SDS011;39181;53.440;5.644;2023-04-01T14:47:15;14.07;;;4.40;;
53293;SDS011;39181;53.440;5.644;2023-04-01T14:50:03;17.67;;;4.50;;
53293;SDS011;39181;53.440;5.644;2023-04-01T14:52:38;14.05;;;4.28;;
53293;SDS011;39181;53.440;5.644;2023-04-01T14:57:58;19.15;;;4.95;;
53293;SDS011;39181;53.440;5.644;2023-04-01T15:00:25;17.92;;;4.15;;
53293;SDS011;39181;53.440;5.644;2023-04-01T15:05:56;15.10;;;4.07;;
53293;SDS011;39181;53.440;5.644;2023-04-01T15:11:51;23.20;;;5.55;;
53293;SDS011;39181;53.440;5.644;2023-04-01T15:20:33;13.20;;;4.05;;
53293;SDS011;39181;53.440;5.644;2023-04-01T15:23:25;19.13;;;5.30;;
53293;SDS011;39181;53.440;5.644;2023-04-01T15:31:04;24.08;;;5.22;;
53293;SDS011;39181;53.440;5.644;2023-04-01T15:36:45;17.33;;;6.00;;
53293;SDS011;39181;53.440;5.644;2023-04-01T15:39:28;19.83;;;4.82;;
53293;SDS011;39181;53.440;5.644;2023-04-01T15:47:42;14.18;;;4.97;;
53293;SDS011;39181;53.440;5.644;2023-04-01T15:53:31;19.77;;;4.68;;
53293;SDS011;39181;53.440;5.644;2023-04-01T15:56:07;19.08;;;5.03;;
53293;SDS011;39181;53.440;5.644;2023-04-01T15:59:09;15.50;;;4.88;;
53293;SDS011;39181;53.440;5.644;2023-04-01T16:01:54;12.23;;;4.35;;
53293;SDS011;39181;53.440;5.644;2023-04-01T16:09:39;11.48;;;3.90;;
53293;SDS011;39181;53.440;5.644;2023-04-01T16:12:33;19.85;;;5.30;;
53293;SDS011;39181;53.440;5.644;2023-04-01T16:15:41;23.50;;;5.03;;
53293;SDS011;39181;53.440;5.644;2023-04-01T16:21:14;13.10;;;4.13;;
53293;SDS011;39181;53.440;5.644;2023-04-01T16:23:59;26.07;;;5.73;;
53293;SDS011;39181;53.440;5.644;2023-04-01T16:26:52;15.82;;;4.78;;
53293;SDS011;39181;53.440;5.644;2023-04-01T16:29:40;26.02;;;4.50;;
53293;SDS011;39181;53.440;5.644;2023-04-01T16:32:27;15.40;;;4.75;;
53293;SDS011;39181;53.440;5.644;2023-04-01T16:35:25;14.65;;;3.25;;
53293;SDS011;39181;53.440;5.644;2023-04-01T16:37:54;15.45;;;4.90;;
53293;SDS011;39181;53.440;5.644;2023-04-01T16:41:18;10.70;;;3.75;;
53293;SDS011;39181;53.440;5.644;2023-04-01T16:43:37;13.80;;;5.15;;
53293;SDS011;39181;53.440;5.644;2023-04-01T16:51:37;13.47;;;4.27;;
53293;SDS011;39181;53.440;5.644;2023-04-01T16:54:18;16.38;;;4.18;;
53293;SDS011;39181;53.440;5.644;2023-04-01T16:59:40;13.77;;;4.30;;
53293;SDS011;39181;53.440;5.644;2023-04-01T17:02:13;9.38;;;3.50;;
53293;SDS011;39181;53.440;5.644;2023-04-01T17:04:45;17.80;;;4.63;;
53293;SDS011;39181;53.440;5.644;2023-04-01T17:09:57;20.05;;;4.40;;
53293;SDS011;39181;53.440;5.644;2023-04-01T17:12:59;18.98;;;4.75;;
53293;SDS011;39181;53.440;5.644;2023-04-01T17:15:55;14.02;;;3.85;;
53293;SDS011;39181;53.440;5.644;2023-04-01T17:21:38;13.50;;;4.47;;
53293;SDS011;39181;53.440;5.644;2023-04-01T17:24:31;10.30;;;4.35;;
53293;SDS011;39181;53.440;5.644;2023-04-01T17:30:19;14.63;;;4.78;;
53293;SDS011;39181;53.440;5.644;2023-04-01T17:33:35;13.90;;;4.35;;
53293;SDS011;39181;53.440;5.644;2023-04-01T17:41:32;11.40;;;3.88;;
53293;SDS011;39181;53.440;5.644;2023-04-01T17:49:45;20.45;;;4.50;;
53293;SDS011;39181;53.440;5.644;2023-04-01T17:55:03;17.67;;;4.22;;
53293;SDS011;39181;53.440;5.644;2023-04-01T18:08:38;21.60;;;4.38;;
53293;SDS011;39181;53.440;5.644;2023-04-01T18:24:56;19.13;;;3.40;;
53293;SDS011;39181;53.440;5.644;2023-04-01T18:27:45;17.13;;;4.97;;
53293;SDS011;39181;53.440;5.644;2023-04-01T18:30:30;17.13;;;3.20;;
53293;SDS011;39181;53.440;5.644;2023-04-01T18:41:06;12.07;;;3.63;;
53293;SDS011;39181;53.440;5.644;2023-04-01T18:46:30;11.10;;;3.65;;
53293;SDS011;39181;53.440;5.644;2023-04-01T18:49:17;21.13;;;4.75;;
53293;SDS011;39181;53.440;5.644;2023-04-01T18:51:53;11.85;;;4.15;;
53293;SDS011;39181;53.440;5.644;2023-04-01T18:56:48;22.25;;;3.95;;
53293;SDS011;39181;53.440;5.644;2023-04-01T18:59:22;12.27;;;3.90;;
53293;SDS011;39181;53.440;5.644;2023-04-01T19:02:02;14.93;;;4.00;;
53293;SDS011;39181;53.440;5.644;2023-04-01T19:10:21;17.50;;;3.72;;
53293;SDS011;39181;53.440;5.644;2023-04-01T19:21:07;7.25;;;2.80;;
53293;SDS011;39181;53.440;5.644;2023-04-01T19:27:27;15.23;;;3.28;;
53293;SDS011;39181;53.440;5.644;2023-04-01T19:30:14;12.30;;;2.88;;
53293;SDS011;39181;53.440;5.644;2023-04-01T19:32:48;14.30;;;2.97;;
53293;SDS011;39181;53.440;5.644;2023-04-01T19:35:52;12.60;;;3.15;;
53293;SDS011;39181;53.440;5.644;2023-04-01T19:38:35;6.60;;;2.03;;
53293;SDS011;39181;53.440;5.644;2023-04-01T19:43:50;13.70;;;3.35;;
53293;SDS011;39181;53.440;5.644;2023-04-01T19:46:33;20.38;;;3.78;;
53293;SDS011;39181;53.440;5.644;2023-04-01T19:49:12;13.13;;;3.30;;
53293;SDS011;39181;53.440;5.644;2023-04-01T20:02:54;11.60;;;2.42;;
53293;SDS011;39181;53.440;5.644;2023-04-01T20:05:30;12.10;;;3.00;;
53293;SDS011;39181;53.440;5.644;2023-04-01T20:08:17;9.68;;;1.95;;
53293;SDS011;39181;53.440;5.644;2023-04-01T20:10:53;11.52;;;2.55;;
53293;SDS011;39181;53.440;5.644;2023-04-01T20:16:03;7.85;;;2.45;;
53293;SDS011;39181;53.440;5.644;2023-04-01T20:18:36;9.95;;;3.05;;
53293;SDS011;39181;53.440;5.644;2023-04-01T20:21:05;24.73;;;3.70;;
53293;SDS011;39181;53.440;5.644;2023-04-01T20:23:45;8.07;;;2.08;;
53293;SDS011;39181;53.440;5.644;2023-04-01T20:26:34;14.02;;;2.72;;
53293;SDS011;39181;53.440;5.644;2023-04-01T20:37:27;15.35;;;3.63;;
53293;SDS011;39181;53.440;5.644;2023-04-01T20:42:57;16.33;;;3.00;;
53293;SDS011;39181;53.440;5.644;2023-04-01T20:45:47;14.30;;;2.35;;
53293;SDS011;39181;53.440;5.644;2023-04-01T20:51:31;10.15;;;2.05;;
53293;SDS011;39181;53.440;5.644;2023-04-01T20:57:11;8.80;;;2.53;;
53293;SDS011;39181;53.440;5.644;2023-04-01T21:05:41;12.95;;;2.15;;
53293;SDS011;39181;53.440;5.644;2023-04-01T21:11:51;12.55;;;2.63;;
53293;SDS011;39181;53.440;5.644;2023-04-01T21:17:48;17.52;;;2.53;;
53293;SDS011;39181;53.440;5.644;2023-04-01T21:23:57;16.15;;;2.80;;
53293;SDS011;39181;53.440;5.644;2023-04-01T21:26:19;10.60;;;2.13;;
53293;SDS011;39181;53.440;5.644;2023-04-01T21:31:58;15.00;;;2.47;;
53293;SDS011;39181;53.440;5.644;2023-04-01T21:37:33;15.15;;;2.70;;
53293;SDS011;39181;53.440;5.644;2023-04-01T21:42:49;8.07;;;1.98;;
53293;SDS011;39181;53.440;5.644;2023-04-01T21:48:27;9.10;;;2.35;;
53293;SDS011;39181;53.440;5.644;2023-04-01T22:02:38;13.48;;;2.35;;
53293;SDS011;39181;53.440;5.644;2023-04-01T22:05:15;17.38;;;2.78;;
53293;SDS011;39181;53.440;5.644;2023-04-01T22:10:54;12.40;;;1.95;;
53293;SDS011;39181;53.440;5.644;2023-04-01T22:13:50;10.82;;;1.88;;
53293;SDS011;39181;53.440;5.644;2023-04-01T22:19:16;11.10;;;2.25;;
53293;SDS011;39181;53.440;5.644;2023-04-01T22:27:18;13.07;;;2.72;;
53293;SDS011;39181;53.440;5.644;2023-04-01T22:30:19;10.23;;;1.83;;
53293;SDS011;39181;53.440;5.644;2023-04-01T22:32:50;17.25;;;3.70;;
53293;SDS011;39181;53.440;5.644;2023-04-01T22:38:05;6.78;;;2.08;;
53293;SDS011;39181;53.440;5.644;2023-04-01T22:40:54;15.00;;;2.60;;
53293;SDS011;39181;53.440;5.644;2023-04-01T22:43:38;15.20;;;2.17;;
53293;SDS011;39181;53.440;5.644;2023-04-01T22:54:15;11.10;;;1.77;;
53293;SDS011;39181;53.440;5.644;2023-04-01T23:02:21;8.50;;;1.92;;
53293;SDS011;39181;53.440;5.644;2023-04-01T23:04:59;13.07;;;2.65;;
53293;SDS011;39181;53.440;5.644;2023-04-01T23:09:58;8.60;;;1.42;;
53293;SDS011;39181;53.440;5.644;2023-04-01T23:12:27;12.57;;;2.20;;
53293;SDS011;39181;53.440;5.644;2023-04-01T23:14:56;7.65;;;1.75;;
53293;SDS011;39181;53.440;5.644;2023-04-01T23:17:35;14.85;;;2.42;;
53293;SDS011;39181;53.440;5.644;2023-04-01T23:23:06;11.57;;;2.20;;
53293;SDS011;39181;53.440;5.644;2023-04-01T23:28:27;10.15;;;1.75;;
53293;SDS011;39181;53.440;5.644;2023-04-01T23:36:47;13.02;;;2.28;;
53293;SDS011;39181;53.440;5.644;2023-04-01T23:42:19;8.65;;;2.03;;
53293;SDS011;39181;53.440;5.644;2023-04-01T23:45:03;14.63;;;2.28;;
53293;SDS011;39181;53.440;5.644;2023-04-01T23:47:37;6.75;;;1.60;;
53293;SDS011;39181;53.440;5.644;2023-04-01T23:50:12;15.80;;;3.15;;
53293;SDS011;39181;53.440;5.644;2023-04-01T23:52:46;10.48;;;1.60;;
53293;SDS011;39181;53.440;5.644;2023-04-01T23:55:24;6.97;;;1.77;;
